ADDS TAF Board (Experimental) INFO Settings
IDs: Format: Expanded Condensed

KBWI - Baltimore-Washington, MD, US

Issued at 0852 UTC 27 May 2015
Updated at: 0941 UTC 27 May 2015
Time0854Z 27/10Z 27/11Z 27/12Z 27/13Z 27/14Z 27/15Z 27/16Z 27/17Z 27/18Z 27/19Z 27/20Z 27/21Z 27/22Z
Type OBS PRVL PRVL PRVL PRVL PRVL PRVL PRVL PRVL PRVL PRVL PRVL PRVL PRVL
VIS 10 >6 >6 >6 >6 >6 >6 >6 >6 >6 >6 6 6 6
CIG 20 20 20 20 20 70 70 70 70 70 70 40 40 40
Cover OVC BKN BKN BKN BKN BKN BKN BKN BKN BKN BKN BKN BKN BKN
FltCat MVFR MVFR MVFR MVFR MVFR VFR VFR VFR VFR VFR VFR VFR VFR VFR
WX -- -- -- -- -- -- -- -- -- -- -- -SHRA VCTS -SHRA VCTS -SHRA VCTS
WDir 180 170 170 170 170 210 210 210 210 210 210 170 170 170
WSpd 3 5 5 5 5 8 8 8 8 8 8 10 10 10
WGst -- -- -- -- -- -- -- -- -- -- -- -- -- --
R04/22
XWnd -2 -3 -3 -3 -3 -0 -0 -0 -0 -0 -0 -7 -7 -7
HWnd -3 -4 -4 -4 -4 -8 -8 -8 -8 -8 -8 -7 -7 -7
R10/28
XWnd -3 -5 -5 -5 -5 -7 -7 -7 -7 -7 -7 -10 -10 -10
HWnd 0 1 1 1 1 -4 -4 -4 -4 -4 -4 2 2 2
R15/33
XWnd -2 -2 -2 -2 -2 -7 -7 -7 -7 -7 -7 -4 -4 -4
HWnd 2 4 4 4 4 3 3 3 3 3 3 9 9 9

NOTE: TEMPO conditions in [brackets]. Keep in mind TEMPO conditions might be better (lower impact) than prevailing conditions.

Raw TAF
KBWI 270852Z 2709/2812 17005KT P6SM BKN020
  FM271400 21008KT P6SM SCT020 BKN070
  FM272000 17010KT 6SM -SHRA VCTS BKN040CB
  FM280100 19006KT P6SM BKN150


Raw METAR
KBWI 270854Z 18003KT 10SM OVC020 22/19 A3014 RMK AO2 SLP204 T02170194 55004
KBWI 270838Z 20003KT 10SM BKN020 21/19 A3013 RMK AO2
KBWI 270754Z 17003KT 10SM FEW140 SCT220 21/19 A3013 RMK AO2 SLP203 T02110189
KBWI 270654Z 19004KT 10SM BKN140 BKN220 22/19 A3015 RMK AO2 SLP207 T02170189

METAR Board
Radar Display
Forecast Discussion

TAF Board Legend

Potential Impact
Threat None Slight Moderate High
Visibility (sm) ≥5.1 5.1>X≥3 3>X≥1 <1
Ceiling (100 ft) ≥30.1 30.1>X≥10 10>X≥5 <5
Wind Speed (kt) <10 10≤X<20 20≤X<30 ≥30
Wind Gust (kt) <15 15≤X<25 25≤X<35 ≥35
Weather No Wx Reported VCTS,-TS,-FZRA,SN TS,FZRA +TS,+FZRA,+SN